Time;durP1;ratioP1;P1;durP2;ratioP2;P2;SDS_P1;SDS_P2;PMS_P1;PMS_P2;Temp;Humidity;BMP_temperature;BMP_pressure;BME280_temperature;BME280_humidity;BME280_pressure;Samples;Min_cycle;Max_cycle;Signal;HPM_P1;HPM_P2
2022/12/09 00:01:04;;;;;;;71.60;60.40;;;2.80;99.90;;;;;;5048819;28;20237;-52
2022/12/09 00:03:33;;;;;;;96.90;75.53;;;2.70;99.90;;;;;;5048126;28;20587;-52
2022/12/09 00:06:08;;;;;;;41.63;37.63;;;2.70;99.90;;;;;;5041223;28;20253;-52
2022/12/09 00:08:36;;;;;;;71.07;57.77;;;2.70;99.90;;;;;;5046197;28;20314;-52
2022/12/09 00:11:06;;;;;;;48.00;43.27;;;2.70;99.90;;;;;;5048776;28;20279;-52
2022/12/09 00:13:34;;;;;;;42.93;33.60;;;2.70;99.90;;;;;;5048308;28;20209;-52
2022/12/09 00:16:06;;;;;;;71.07;59.83;;;2.70;99.90;;;;;;5050407;28;20296;-52
2022/12/09 00:18:34;;;;;;;67.27;59.67;;;2.70;99.90;;;;;;5052115;28;20217;-51
2022/12/09 00:21:14;;;;;;;79.60;48.70;;;2.70;99.90;;;;;;5051717;28;20301;-52
2022/12/09 00:23:42;;;;;;;54.03;48.83;;;2.70;99.90;;;;;;5051276;28;20236;-52
2022/12/09 00:26:10;;;;;;;117.53;76.07;;;2.70;99.90;;;;;;5052065;28;20207;-52
2022/12/09 00:28:39;;;;;;;65.73;56.43;;;2.70;99.90;;;;;;5051814;28;20294;-52
2022/12/09 00:31:08;;;;;;;47.97;39.30;;;2.70;99.90;;;;;;5052063;28;20260;-52
2022/12/09 00:33:36;;;;;;;43.03;38.73;;;2.60;99.90;;;;;;5050941;28;20218;-52
2022/12/09 00:36:05;;;;;;;54.57;48.83;;;2.60;99.90;;;;;;5050688;28;20217;-51
2022/12/09 00:38:36;;;;;;;49.00;43.73;;;2.60;99.90;;;;;;5051216;28;20233;-52
2022/12/09 00:41:05;;;;;;;46.50;37.90;;;2.60;99.90;;;;;;5052100;28;20213;-52
2022/12/09 00:43:33;;;;;;;80.63;71.83;;;2.60;99.90;;;;;;5050323;28;20297;-51
2022/12/09 00:46:02;;;;;;;49.20;37.30;;;2.60;99.90;;;;;;5051446;28;20198;-52
2022/12/09 00:48:33;;;;;;;84.27;59.27;;;2.60;99.90;;;;;;5051409;28;20229;-52
2022/12/09 00:51:01;;;;;;;67.83;60.73;;;2.60;99.90;;;;;;5050212;28;20213;-50
2022/12/09 00:53:29;;;;;;;89.47;60.07;;;2.60;99.90;;;;;;5041865;28;20209;-51
2022/12/09 00:55:59;;;;;;;40.23;36.13;;;2.60;99.90;;;;;;5051076;28;20946;-50
2022/12/09 00:58:27;;;;;;;59.37;47.70;;;2.60;99.90;;;;;;5051077;28;20271;-52
2022/12/09 01:00:56;;;;;;;67.97;61.93;;;2.60;99.90;;;;;;5050343;28;20209;-51
2022/12/09 01:03:24;;;;;;;86.73;78.50;;;2.50;99.90;;;;;;5050343;28;20205;-53
2022/12/09 01:05:53;;;;;;;48.70;38.67;;;2.50;99.90;;;;;;5049967;28;20264;-52
2022/12/09 01:08:21;;;;;;;43.93;37.13;;;2.50;99.90;;;;;;5050143;28;20225;-52
2022/12/09 01:10:49;;;;;;;55.33;49.93;;;2.50;99.90;;;;;;5050709;28;20257;-52
2022/12/09 01:13:19;;;;;;;59.80;53.53;;;2.50;99.90;;;;;;5049148;28;20232;-51
2022/12/09 01:15:47;;;;;;;36.43;32.43;;;2.40;99.90;;;;;;5050265;28;20224;-52
2022/12/09 01:18:15;;;;;;;61.83;55.00;;;2.40;99.90;;;;;;5050204;28;20209;-52
2022/12/09 01:20:44;;;;;;;60.40;53.33;;;2.40;99.90;;;;;;5050768;28;20232;-52
2022/12/09 01:23:12;;;;;;;49.37;44.13;;;2.30;99.90;;;;;;5050072;28;20213;-51
2022/12/09 01:25:40;;;;;;;67.80;60.03;;;2.30;99.90;;;;;;5050886;28;20299;-51
2022/12/09 01:28:08;;;;;;;101.80;82.07;;;2.30;99.90;;;;;;5050428;28;20242;-51
2022/12/09 01:30:38;;;;;;;43.80;35.87;;;2.30;99.90;;;;;;5040886;28;20237;-52
2022/12/09 01:33:06;;;;;;;65.37;40.40;;;2.30;99.90;;;;;;5050270;28;20221;-52
2022/12/09 01:35:34;;;;;;;83.20;54.23;;;2.40;99.90;;;;;;5050587;28;20221;-52
2022/12/09 01:38:02;;;;;;;97.20;76.80;;;2.40;99.90;;;;;;5050515;28;20207;-52
2022/12/09 01:40:30;;;;;;;65.67;43.43;;;2.40;99.90;;;;;;5050518;28;20649;-51
2022/12/09 01:42:58;;;;;;;53.83;48.80;;;2.40;99.90;;;;;;5049865;28;20276;-52
2022/12/09 01:45:42;;;;;;;63.63;56.63;;;2.50;99.90;;;;;;5050478;28;20202;-51
2022/12/09 01:48:12;;;;;;;62.20;55.77;;;2.40;99.90;;;;;;5050331;28;20561;-52
2022/12/09 01:50:45;;;;;;;49.90;44.40;;;2.40;99.90;;;;;;5050329;28;20205;-52
2022/12/09 01:53:14;;;;;;;55.80;50.67;;;2.40;99.90;;;;;;5049785;28;20629;-51
2022/12/09 01:55:42;;;;;;;51.80;44.00;;;2.50;99.90;;;;;;5050041;28;20247;-51
2022/12/09 01:58:11;;;;;;;52.83;45.33;;;2.40;99.90;;;;;;5050201;28;20212;-52
2022/12/09 02:00:39;;;;;;;46.23;37.63;;;2.40;99.90;;;;;;5049590;28;20689;-52
2022/12/09 02:03:08;;;;;;;67.07;60.07;;;2.40;99.90;;;;;;5049698;28;20263;-52
2022/12/09 02:05:37;;;;;;;104.53;64.43;;;2.40;99.90;;;;;;5049854;28;20231;-51
2022/12/09 02:08:10;;;;;;;41.77;29.30;;;2.40;99.90;;;;;;5049658;28;20223;-52
2022/12/09 02:10:45;;;;;;;80.73;72.93;;;2.30;99.90;;;;;;5049731;28;20209;-52
2022/12/09 02:13:22;;;;;;;61.27;54.67;;;2.30;99.90;;;;;;5049442;28;20209;-51
2022/12/09 02:15:54;;;;;;;148.80;94.23;;;2.20;99.90;;;;;;5049707;28;20639;-52
2022/12/09 02:18:31;;;;;;;70.63;63.63;;;2.10;99.90;;;;;;5049413;28;20294;-52
2022/12/09 02:21:04;;;;;;;43.97;39.43;;;2.10;99.90;;;;;;5049810;28;20288;-52
2022/12/09 02:23:38;;;;;;;77.27;69.57;;;2.10;99.90;;;;;;5048824;28;20210;-51
2022/12/09 02:26:15;;;;;;;100.70;91.37;;;2.00;99.90;;;;;;5049557;28;20201;-52
2022/12/09 02:29:12;;;;;;;62.47;56.03;;;2.00;99.90;;;;;;5049359;28;20275;-53
2022/12/09 02:32:09;;;;;;;76.57;68.87;;;2.00;99.90;;;;;;5047135;28;20211;-54
2022/12/09 02:34:43;;;;;;;85.27;77.33;;;2.00;99.90;;;;;;5049495;28;20251;-53
2022/12/09 02:37:17;;;;;;;81.63;73.73;;;1.90;99.90;;;;;;5048028;28;20208;-52
2022/12/09 02:39:51;;;;;;;78.90;71.17;;;1.90;99.90;;;;;;5046321;28;20315;-52
2022/12/09 02:42:22;;;;;;;48.20;43.30;;;1.70;99.90;;;;;;5040164;28;20643;-52
2022/12/09 02:44:52;;;;;;;91.20;82.57;;;1.70;99.90;;;;;;5049164;28;20726;-51
2022/12/09 02:47:24;;;;;;;89.83;82.53;;;1.60;99.90;;;;;;5048542;28;20228;-51
2022/12/09 02:49:59;;;;;;;155.87;122.63;;;1.60;99.90;;;;;;5048534;28;20262;-52
2022/12/09 02:52:30;;;;;;;87.23;79.70;;;1.50;99.90;;;;;;5047778;28;20752;-52
2022/12/09 02:55:00;;;;;;;55.83;50.40;;;1.40;99.90;;;;;;5049093;28;20206;-52
2022/12/09 02:57:31;;;;;;;124.53;113.10;;;1.40;99.90;;;;;;5049436;28;20210;-51
2022/12/09 02:59:59;;;;;;;217.67;102.87;;;1.40;99.90;;;;;;5048728;28;20225;-51
2022/12/09 03:02:31;;;;;;;63.73;49.73;;;1.30;99.90;;;;;;5048883;28;20240;-51
2022/12/09 03:05:11;;;;;;;118.03;106.93;;;1.30;99.90;;;;;;5048880;28;20208;-51
2022/12/09 03:07:43;;;;;;;137.97;124.67;;;1.30;99.90;;;;;;5049133;28;20326;-52
2022/12/09 03:10:17;;;;;;;120.60;109.20;;;1.20;99.90;;;;;;5048987;28;20722;-51
2022/12/09 03:12:51;;;;;;;108.70;97.40;;;1.20;99.90;;;;;;5048327;28;20316;-51
2022/12/09 03:15:25;;;;;;;302.70;240.60;;;1.10;99.90;;;;;;5045609;28;20210;-52
2022/12/09 03:17:54;;;;;;;116.17;105.73;;;1.10;99.90;;;;;;5048791;28;20265;-50
2022/12/09 03:20:28;;;;;;;92.27;83.77;;;1.10;99.90;;;;;;5046989;28;20854;-51
2022/12/09 03:23:00;;;;;;;52.70;39.73;;;1.10;99.90;;;;;;5048224;28;20209;-51
2022/12/09 03:25:32;;;;;;;120.97;109.87;;;1.00;99.90;;;;;;5048960;28;20661;-51
2022/12/09 03:28:03;;;;;;;122.77;112.20;;;1.00;99.90;;;;;;5048672;28;20210;-53
2022/12/09 03:30:34;;;;;;;179.40;163.40;;;0.90;99.90;;;;;;5048780;28;20229;-51
2022/12/09 03:33:03;;;;;;;184.53;166.70;;;0.90;99.90;;;;;;5047988;28;20214;-52
2022/12/09 03:35:37;;;;;;;88.33;79.10;;;0.80;99.90;;;;;;5047211;28;20235;-53
2022/12/09 03:38:07;;;;;;;129.87;118.60;;;0.80;99.90;;;;;;5048765;28;20682;-52
2022/12/09 03:40:37;;;;;;;50.77;43.70;;;0.70;99.90;;;;;;5049066;28;20298;-53
2022/12/09 03:43:12;;;;;;;166.27;150.30;;;0.60;99.90;;;;;;5048000;28;20208;-52
2022/12/09 03:45:41;;;;;;;128.83;117.30;;;0.60;99.90;;;;;;5048861;28;20954;-52
2022/12/09 03:48:10;;;;;;;115.47;102.93;;;0.60;99.90;;;;;;5048390;28;20615;-51
2022/12/09 03:50:49;;;;;;;91.73;79.80;;;0.60;99.90;;;;;;5049838;28;20207;-52
2022/12/09 03:53:21;;;;;;;110.03;99.07;;;0.60;99.90;;;;;;5051910;28;20240;-51
2022/12/09 03:55:57;;;;;;;154.07;140.07;;;0.60;99.90;;;;;;5052459;28;20863;-51
2022/12/09 03:58:26;;;;;;;175.60;159.87;;;0.60;99.90;;;;;;5052881;28;20289;-51
2022/12/09 04:00:55;;;;;;;274.60;189.20;;;0.50;99.90;;;;;;5052898;28;20639;-52
2022/12/09 04:03:23;;;;;;;241.73;220.07;;;0.50;99.90;;;;;;5052043;28;20213;-50
2022/12/09 04:05:53;;;;;;;198.07;176.30;;;0.50;99.90;;;;;;5052489;28;20677;-52
2022/12/09 04:08:22;;;;;;;125.57;112.80;;;0.40;99.90;;;;;;5043317;28;20226;-51
2022/12/09 04:10:50;;;;;;;158.73;126.13;;;0.40;99.90;;;;;;5052408;28;20217;-51
2022/12/09 04:13:18;;;;;;;171.67;132.63;;;0.40;99.90;;;;;;5052041;28;20379;-51
2022/12/09 04:15:46;;;;;;;103.30;94.93;;;0.30;99.90;;;;;;5052183;28;20214;-53
2022/12/09 04:18:15;;;;;;;173.93;155.77;;;0.30;99.90;;;;;;5052031;28;20293;-52
2022/12/09 04:20:43;;;;;;;302.03;229.57;;;0.20;99.90;;;;;;5051905;28;20659;-52
2022/12/09 04:23:13;;;;;;;118.27;108.23;;;0.20;99.90;;;;;;5051468;28;20214;-51
2022/12/09 04:25:41;;;;;;;207.20;186.07;;;0.20;99.90;;;;;;5051047;28;20213;-52
2022/12/09 04:28:09;;;;;;;149.63;135.53;;;0.20;99.90;;;;;;5051315;28;20212;-51
2022/12/09 04:30:37;;;;;;;124.43;112.83;;;0.20;99.90;;;;;;5051585;28;20245;-51
2022/12/09 04:33:06;;;;;;;177.83;160.30;;;0.20;99.90;;;;;;5051074;28;20212;-51
2022/12/09 04:35:34;;;;;;;204.47;183.30;;;0.10;99.90;;;;;;5051328;28;20700;-52
2022/12/09 04:38:02;;;;;;;205.97;185.90;;;0.10;99.90;;;;;;5051522;28;20226;-51
2022/12/09 04:40:32;;;;;;;245.10;222.13;;;0.10;99.90;;;;;;5051641;28;20592;-52
2022/12/09 04:43:00;;;;;;;164.50;149.77;;;0.10;99.90;;;;;;5050758;28;20206;-52
2022/12/09 04:45:28;;;;;;;137.07;126.50;;;0.00;99.90;;;;;;5043601;28;20215;-50
2022/12/09 04:47:58;;;;;;;205.33;178.07;;;0.00;99.90;;;;;;5048652;28;20258;-52
2022/12/09 04:50:26;;;;;;;147.63;134.63;;;0.00;99.90;;;;;;5047673;28;20242;-52
2022/12/09 04:52:54;;;;;;;96.77;80.23;;;0.00;99.90;;;;;;5050003;28;20211;-50
2022/12/09 04:55:23;;;;;;;206.67;155.07;;;-0.20;99.90;;;;;;5050678;28;20265;-52
2022/12/09 04:57:52;;;;;;;251.87;225.43;;;-0.20;99.90;;;;;;5051208;28;20221;-51
2022/12/09 05:00:21;;;;;;;221.47;197.93;;;-0.20;99.90;;;;;;5051298;28;20258;-51
2022/12/09 05:02:50;;;;;;;188.50;168.93;;;-0.30;99.90;;;;;;5039412;28;20620;-53
2022/12/09 05:05:18;;;;;;;205.57;185.30;;;-0.20;99.90;;;;;;5051222;28;20583;-52
2022/12/09 05:07:46;;;;;;;159.80;144.67;;;-0.20;99.90;;;;;;5051171;28;20243;-50
2022/12/09 05:10:15;;;;;;;121.50;109.10;;;-0.20;99.90;;;;;;5051099;28;20237;-51
2022/12/09 05:12:44;;;;;;;144.43;120.00;;;-0.20;99.90;;;;;;5050700;28;20214;-51
2022/12/09 05:15:14;;;;;;;187.50;147.57;;;-0.20;99.90;;;;;;5050490;28;20665;-51
2022/12/09 05:17:42;;;;;;;203.10;183.70;;;-0.20;99.90;;;;;;5051143;28;20256;-52
2022/12/09 05:20:11;;;;;;;244.40;194.53;;;-0.30;99.90;;;;;;5050619;28;20299;-52
2022/12/09 05:22:40;;;;;;;361.77;328.73;;;-0.30;99.90;;;;;;5050394;28;20881;-52
2022/12/09 05:25:09;;;;;;;423.20;382.50;;;-0.40;99.90;;;;;;5050479;28;20673;-52
2022/12/09 05:27:37;;;;;;;369.73;334.67;;;-0.40;99.90;;;;;;5050514;28;20829;-51
2022/12/09 05:30:07;;;;;;;270.43;246.00;;;-0.50;99.90;;;;;;5050255;28;20266;-52
2022/12/09 05:32:38;;;;;;;381.47;349.40;;;-0.50;99.90;;;;;;5050071;28;20206;-52
2022/12/09 05:35:07;;;;;;;394.03;353.80;;;-0.50;99.90;;;;;;5049018;28;20222;-51
2022/12/09 05:37:35;;;;;;;470.40;399.60;;;-0.60;99.90;;;;;;5050225;28;20310;-52
2022/12/09 05:40:04;;;;;;;338.80;308.40;;;-0.60;99.90;;;;;;5050513;28;20219;-53
2022/12/09 05:42:33;;;;;;;402.47;349.47;;;-0.60;99.90;;;;;;5050259;28;20213;-52
2022/12/09 05:45:09;;;;;;;344.20;282.03;;;-0.60;99.90;;;;;;5050057;28;20254;-51
2022/12/09 05:47:39;;;;;;;1047.90;486.47;;;-0.60;99.90;;;;;;5050216;28;20299;-51
2022/12/09 05:50:08;;;;;;;740.60;477.40;;;-0.60;99.90;;;;;;5050574;28;20631;-52
2022/12/09 05:52:37;;;;;;;787.43;536.53;;;-0.60;99.90;;;;;;5049779;28;20210;-51
2022/12/09 05:55:07;;;;;;;384.47;346.40;;;-0.70;99.90;;;;;;5050310;28;20256;-51
2022/12/09 05:57:36;;;;;;;463.03;414.57;;;-0.70;99.90;;;;;;5049862;28;20316;-52
2022/12/09 06:00:05;;;;;;;464.20;420.43;;;-0.70;99.90;;;;;;5035962;28;20709;-51
2022/12/09 06:02:34;;;;;;;506.03;455.70;;;-0.70;99.90;;;;;;5049853;28;20198;-52
2022/12/09 06:05:05;;;;;;;389.03;353.20;;;-0.70;99.90;;;;;;5049869;28;20211;-51
2022/12/09 06:07:34;;;;;;;330.10;252.23;;;-0.70;99.90;;;;;;5049919;28;20243;-52
2022/12/09 06:10:03;;;;;;;202.77;183.87;;;-0.70;99.90;;;;;;5049586;28;20248;-50
2022/12/09 06:12:32;;;;;;;207.10;190.03;;;-0.80;99.90;;;;;;5048631;28;20241;-53
2022/12/09 06:15:00;;;;;;;275.17;248.73;;;-0.80;99.90;;;;;;5049288;28;20744;-52
2022/12/09 06:17:29;;;;;;;151.07;138.47;;;-0.90;99.90;;;;;;5042199;28;20218;-51
2022/12/09 06:19:57;;;;;;;170.63;132.67;;;-1.00;99.90;;;;;;5045334;28;20329;-51
2022/12/09 06:22:27;;;;;;;215.23;197.13;;;-1.00;99.90;;;;;;5049208;28;20275;-52
2022/12/09 06:24:56;;;;;;;309.03;275.57;;;-1.00;99.90;;;;;;5049470;28;20670;-52
2022/12/09 06:27:24;;;;;;;177.07;158.33;;;-1.00;99.90;;;;;;5049587;28;20512;-53
2022/12/09 06:29:52;;;;;;;261.83;193.13;;;-1.00;99.90;;;;;;5049641;28;20280;-52
2022/12/09 06:32:21;;;;;;;320.53;187.23;;;-1.10;99.90;;;;;;5049035;28;20206;-52
2022/12/09 06:34:49;;;;;;;307.10;213.73;;;-1.20;99.90;;;;;;5049677;28;20829;-50
2022/12/09 06:37:18;;;;;;;314.37;267.33;;;-1.20;99.90;;;;;;5047161;28;20237;-52
2022/12/09 06:39:48;;;;;;;304.13;227.13;;;-1.10;99.90;;;;;;5049152;28;20244;-53
2022/12/09 06:42:16;;;;;;;242.67;202.90;;;-1.10;99.90;;;;;;5048876;28;20291;-51
2022/12/09 06:44:44;;;;;;;244.27;220.10;;;-1.20;99.90;;;;;;5049426;28;20319;-50
2022/12/09 06:47:13;;;;;;;301.80;271.60;;;-1.20;99.90;;;;;;5049507;28;20227;-51
2022/12/09 06:49:41;;;;;;;351.13;320.80;;;-1.20;99.90;;;;;;5048822;28;20229;-52
2022/12/09 06:52:09;;;;;;;248.83;225.57;;;-1.20;99.90;;;;;;5041174;28;20746;-51
2022/12/09 06:54:38;;;;;;;322.27;295.50;;;-1.20;99.90;;;;;;5049327;28;20209;-51
2022/12/09 06:57:07;;;;;;;424.50;379.27;;;-1.20;99.90;;;;;;5048802;28;20233;-51
2022/12/09 06:59:36;;;;;;;406.93;373.03;;;-1.30;99.90;;;;;;5049053;28;20240;-52
2022/12/09 07:02:04;;;;;;;284.30;261.23;;;-1.30;99.90;;;;;;5048458;28;20212;-52
2022/12/09 07:04:33;;;;;;;262.67;239.50;;;-1.30;99.90;;;;;;5048623;28;20616;-51
2022/12/09 07:07:02;;;;;;;469.30;425.90;;;-1.30;99.90;;;;;;5049002;28;20197;-52
2022/12/09 07:09:30;;;;;;;484.03;441.13;;;-1.40;99.90;;;;;;5048784;28;20229;-50
2022/12/09 07:11:58;;;;;;;508.53;465.37;;;-1.40;99.90;;;;;;5037804;28;20202;-50
2022/12/09 07:14:28;;;;;;;560.00;490.40;;;-1.40;99.90;;;;;;5048578;28;20213;-51
2022/12/09 07:16:56;;;;;;;637.23;580.27;;;-1.40;99.90;;;;;;5047728;28;20610;-52
2022/12/09 07:19:25;;;;;;;720.10;655.87;;;-1.40;99.90;;;;;;5048471;28;20780;-50
2022/12/09 07:21:53;;;;;;;593.57;528.83;;;-1.40;99.90;;;;;;5047933;28;20206;-52
2022/12/09 07:24:21;;;;;;;595.10;538.10;;;-1.40;99.90;;;;;;5049847;28;20213;-51
2022/12/09 07:26:50;;;;;;;648.83;587.47;;;-1.40;99.90;;;;;;5053105;28;20681;-52
2022/12/09 07:29:19;;;;;;;621.43;559.23;;;-1.40;99.90;;;;;;5052744;28;20233;-52
2022/12/09 07:31:49;;;;;;;562.60;511.17;;;-1.40;99.90;;;;;;5051793;28;20209;-51
2022/12/09 07:34:18;;;;;;;662.40;588.53;;;-1.40;99.90;;;;;;5051021;28;20202;-51
2022/12/09 07:36:46;;;;;;;568.10;515.70;;;-1.40;99.90;;;;;;5052097;28;20213;-51
2022/12/09 07:39:17;;;;;;;651.97;587.23;;;-1.40;99.90;;;;;;5052856;28;20621;-51
2022/12/09 07:41:47;;;;;;;391.77;359.30;;;-1.30;99.90;;;;;;5047277;28;20209;-51
2022/12/09 07:44:15;;;;;;;718.10;651.93;;;-1.40;99.90;;;;;;5053043;28;20241;-53
2022/12/09 07:46:43;;;;;;;620.97;565.57;;;-1.30;99.90;;;;;;5052845;28;20219;-52
2022/12/09 07:49:13;;;;;;;584.67;521.53;;;-1.40;99.90;;;;;;5051458;28;20869;-52
2022/12/09 07:51:42;;;;;;;532.40;476.87;;;-1.40;99.90;;;;;;5052405;28;20749;-52
2022/12/09 07:54:12;;;;;;;493.83;446.07;;;-1.40;99.90;;;;;;5052599;28;20216;-52
2022/12/09 07:56:41;;;;;;;456.43;408.17;;;-1.40;99.90;;;;;;5038326;28;20680;-53
2022/12/09 07:59:11;;;;;;;521.43;406.23;;;-1.40;99.90;;;;;;5044849;28;20305;-51
2022/12/09 08:01:40;;;;;;;736.10;667.40;;;-1.30;99.90;;;;;;5051260;28;20232;-51
2022/12/09 08:04:08;;;;;;;349.87;318.00;;;-1.20;99.90;;;;;;5052064;28;20209;-51
2022/12/09 08:06:39;;;;;;;486.23;440.10;;;-1.20;99.90;;;;;;5052273;28;20206;-51
2022/12/09 08:09:10;;;;;;;417.73;376.00;;;-1.10;99.90;;;;;;5051908;28;20229;-50
2022/12/09 08:11:39;;;;;;;467.73;418.37;;;-1.10;99.90;;;;;;5052096;28;20707;-51
2022/12/09 08:14:10;;;;;;;433.03;397.13;;;-1.10;99.90;;;;;;5051822;28;20210;-52
2022/12/09 08:16:40;;;;;;;463.03;417.43;;;-1.00;99.90;;;;;;5052151;28;20263;-52
2022/12/09 08:19:10;;;;;;;449.57;406.10;;;-1.00;99.90;;;;;;5051697;28;20792;-50
2022/12/09 08:21:40;;;;;;;485.77;444.33;;;-1.00;99.90;;;;;;5052193;28;20224;-51
2022/12/09 08:24:11;;;;;;;248.20;226.13;;;-0.90;99.90;;;;;;5052067;28;20296;-52
2022/12/09 08:26:40;;;;;;;371.00;336.03;;;-0.90;99.90;;;;;;5051413;28;20292;-51
2022/12/09 08:29:09;;;;;;;582.13;429.20;;;-0.90;99.90;;;;;;5051516;28;20309;-51
2022/12/09 08:31:40;;;;;;;389.37;349.37;;;-0.90;99.90;;;;;;5051582;28;20205;-52
2022/12/09 08:34:09;;;;;;;444.03;402.67;;;-0.80;99.90;;;;;;5052250;28;20215;-51
2022/12/09 08:36:39;;;;;;;1578.07;581.63;;;-0.80;99.90;;;;;;5039852;28;20322;-50
2022/12/09 08:39:08;;;;;;;106.00;96.00;;;-0.70;99.90;;;;;;5051674;28;20288;-51
2022/12/09 08:41:38;;;;;;;1999.90;910.17;;;-0.70;99.90;;;;;;5051654;28;20296;-52
2022/12/09 08:44:09;;;;;;;181.13;164.13;;;-0.60;99.90;;;;;;5051123;28;20667;-51
2022/12/09 08:46:39;;;;;;;228.23;161.57;;;-0.60;99.90;;;;;;5051592;28;20210;-52
2022/12/09 08:49:09;;;;;;;310.53;274.60;;;-0.60;99.90;;;;;;5051224;28;20228;-52
2022/12/09 08:51:38;;;;;;;227.93;207.10;;;-0.60;99.90;;;;;;5050856;28;20257;-52
2022/12/09 08:54:08;;;;;;;218.93;198.30;;;-0.50;99.90;;;;;;5050482;28;20202;-52
2022/12/09 08:56:36;;;;;;;118.53;106.40;;;-0.60;99.90;;;;;;5049889;28;20194;-52
2022/12/09 08:59:04;;;;;;;203.43;184.00;;;-0.60;99.90;;;;;;5049455;28;20308;-52
2022/12/09 09:01:33;;;;;;;259.47;235.70;;;-0.60;99.90;;;;;;5050563;28;20228;-51
2022/12/09 09:04:04;;;;;;;181.50;166.40;;;-0.60;99.90;;;;;;5045510;28;20208;-51
2022/12/09 09:06:34;;;;;;;105.67;96.77;;;-0.60;99.90;;;;;;5049038;28;20209;-53
2022/12/09 09:09:03;;;;;;;112.60;102.20;;;-0.60;99.90;;;;;;5050414;28;20233;-51
2022/12/09 09:11:34;;;;;;;156.23;141.53;;;-0.70;99.90;;;;;;5051130;28;20294;-52
2022/12/09 09:14:04;;;;;;;198.80;181.40;;;-0.70;99.90;;;;;;5050283;28;20205;-52
2022/12/09 09:16:33;;;;;;;178.33;165.00;;;-0.70;99.90;;;;;;5047488;28;20297;-53
2022/12/09 09:19:04;;;;;;;216.30;194.20;;;-0.70;99.90;;;;;;5041896;28;20233;-50
2022/12/09 09:21:34;;;;;;;75.07;68.20;;;-0.70;99.90;;;;;;5051062;28;20622;-52
2022/12/09 09:24:08;;;;;;;269.93;246.70;;;-0.60;99.90;;;;;;5050214;28;20577;-51
2022/12/09 09:26:39;;;;;;;231.77;215.13;;;-0.60;99.90;;;;;;5050562;28;20251;-52
2022/12/09 09:29:10;;;;;;;398.27;332.63;;;-0.50;99.90;;;;;;5049373;28;20312;-52
2022/12/09 09:31:38;;;;;;;378.40;342.23;;;-0.50;99.90;;;;;;5050896;28;20205;-52
2022/12/09 09:34:08;;;;;;;253.07;225.00;;;-0.40;99.90;;;;;;5050148;28;20255;-52
2022/12/09 09:36:36;;;;;;;199.40;180.00;;;-0.30;99.90;;;;;;5049124;28;20210;-52
2022/12/09 09:39:05;;;;;;;238.10;216.50;;;-0.20;99.90;;;;;;5050688;28;20233;-52
2022/12/09 09:41:44;;;;;;;190.70;171.97;;;-0.20;99.90;;;;;;5050191;28;20305;-51
2022/12/09 09:44:19;;;;;;;302.33;275.07;;;-0.10;99.90;;;;;;5050169;28;20220;-52
2022/12/09 09:46:49;;;;;;;87.00;77.70;;;-0.10;99.90;;;;;;5050527;28;20201;-51
2022/12/09 09:49:26;;;;;;;111.80;99.97;;;0.00;99.90;;;;;;5049146;28;20312;-52
2022/12/09 09:51:55;;;;;;;167.10;150.20;;;0.00;99.90;;;;;;5049763;28;20205;-51
2022/12/09 09:54:24;;;;;;;133.00;116.97;;;0.00;99.90;;;;;;5049311;28;20264;-51
2022/12/09 09:56:59;;;;;;;119.60;107.50;;;0.10;99.90;;;;;;5049999;28;20218;-52
2022/12/09 09:59:42;;;;;;;161.00;146.73;;;0.10;99.90;;;;;;5049167;28;20253;-51
2022/12/09 10:02:19;;;;;;;159.73;136.97;;;0.10;99.90;;;;;;5049573;28;20302;-52
2022/12/09 10:05:02;;;;;;;212.03;156.00;;;0.10;99.90;;;;;;5049432;28;20199;-51
2022/12/09 10:07:38;;;;;;;110.97;99.90;;;0.20;99.90;;;;;;5049693;28;20303;-51
2022/12/09 10:10:28;;;;;;;168.03;104.53;;;0.20;99.90;;;;;;5049750;28;20594;-51
2022/12/09 10:13:09;;;;;;;227.57;198.03;;;0.30;99.90;;;;;;5047382;28;20207;-52
2022/12/09 10:15:53;;;;;;;162.90;148.47;;;0.40;99.90;;;;;;5042133;28;20207;-51
2022/12/09 10:18:28;;;;;;;167.90;149.73;;;0.40;99.90;;;;;;5043121;28;20597;-53
2022/12/09 10:20:57;;;;;;;177.37;161.83;;;0.40;99.90;;;;;;5048964;28;20222;-52
2022/12/09 10:23:33;;;;;;;77.77;69.53;;;0.50;99.90;;;;;;5049317;28;20245;-52
2022/12/09 10:26:05;;;;;;;48.93;41.07;;;0.50;99.90;;;;;;5049274;28;20247;-52
2022/12/09 10:28:41;;;;;;;92.43;82.93;;;0.60;99.90;;;;;;5043650;28;20233;-52
2022/12/09 10:31:11;;;;;;;130.97;118.20;;;0.70;99.90;;;;;;5048400;28;20294;-51
2022/12/09 10:33:40;;;;;;;205.97;115.97;;;0.70;99.90;;;;;;5048446;28;20216;-52
2022/12/09 10:36:22;;;;;;;174.73;156.10;;;0.80;99.90;;;;;;5049077;28;20207;-52
2022/12/09 10:38:51;;;;;;;669.77;235.37;;;0.90;99.90;;;;;;5045801;28;20235;-53
2022/12/09 10:44:21;;;;;;;416.27;202.17;;;1.00;99.90;;;;;;5019356;28;20276;-51
2022/12/09 10:46:57;;;;;;;529.30;209.60;;;1.00;99.90;;;;;;5049121;28;20216;-52
2022/12/09 10:49:26;;;;;;;1529.30;591.23;;;1.00;99.90;;;;;;5048893;28;20944;-52
2022/12/09 10:51:55;;;;;;;1078.27;447.97;;;1.00;99.90;;;;;;5048430;28;20211;-52
2022/12/09 10:54:32;;;;;;;1999.90;999.90;;;1.00;99.90;;;;;;5048845;28;20668;-53
2022/12/09 10:57:05;;;;;;;1346.03;330.37;;;1.10;99.90;;;;;;5049319;28;20445;-53
2022/12/09 10:59:36;;;;;;;719.60;266.53;;;1.00;99.90;;;;;;5048690;28;20288;-52
2022/12/09 11:02:19;;;;;;;92.97;83.47;;;1.00;99.90;;;;;;5047454;28;20958;-52
2022/12/09 11:04:48;;;;;;;540.93;151.30;;;1.10;99.90;;;;;;5048871;28;20256;-52
2022/12/09 11:07:19;;;;;;;775.93;200.83;;;1.10;99.90;;;;;;5048469;28;20715;-53
2022/12/09 11:09:51;;;;;;;1009.33;461.07;;;1.10;99.90;;;;;;5045891;28;20644;-52
2022/12/09 11:12:32;;;;;;;210.63;77.27;;;1.20;99.90;;;;;;5036764;28;20257;-52
2022/12/09 11:15:26;;;;;;;1999.90;681.33;;;1.30;99.90;;;;;;5048352;28;20707;-51
2022/12/09 11:17:57;;;;;;;750.83;319.70;;;1.50;99.90;;;;;;5047535;28;20290;-52
2022/12/09 11:20:28;;;;;;;1999.90;634.43;;;1.50;99.90;;;;;;5048311;28;20233;-53
2022/12/09 11:23:04;;;;;;;1999.90;506.70;;;1.50;99.90;;;;;;5047495;28;20217;-52
2022/12/09 11:25:36;;;;;;;1999.90;751.00;;;1.50;99.90;;;;;;5048458;28;20210;-52
2022/12/09 11:28:21;;;;;;;1578.57;552.63;;;1.50;99.90;;;;;;5048086;28;20212;-51
2022/12/09 11:30:54;;;;;;;1895.10;390.73;;;1.50;99.90;;;;;;5048722;28;20230;-53
2022/12/09 11:33:50;;;;;;;109.20;81.40;;;1.60;99.90;;;;;;5047854;28;20610;-52
2022/12/09 11:36:22;;;;;;;1121.50;329.60;;;1.60;99.90;;;;;;5034280;28;20214;-52
2022/12/09 11:38:54;;;;;;;819.53;248.33;;;1.60;99.90;;;;;;5047578;28;20230;-53
2022/12/09 11:44:23;;;;;;;1260.00;366.27;;;1.60;99.90;;;;;;5022295;28;20210;-56
2022/12/09 11:47:01;;;;;;;214.00;112.27;;;1.60;99.90;;;;;;5047966;28;20838;-52
2022/12/09 11:49:34;;;;;;;111.13;101.20;;;1.70;99.90;;;;;;5047865;28;20285;-52
2022/12/09 11:52:21;;;;;;;1221.53;355.77;;;1.80;99.90;;;;;;5048425;28;20292;-51
2022/12/09 11:54:56;;;;;;;1999.90;539.73;;;1.80;99.90;;;;;;5048094;28;20300;-51
2022/12/09 11:57:30;;;;;;;58.57;52.43;;;1.80;99.90;;;;;;5048732;28;20357;-51
2022/12/09 12:00:01;;;;;;;134.00;99.37;;;1.90;99.90;;;;;;5048118;28;20315;-52
2022/12/09 12:02:39;;;;;;;136.23;93.00;;;2.00;99.90;;;;;;5048263;28;20209;-51
2022/12/09 12:05:20;;;;;;;169.30;147.93;;;2.10;99.90;;;;;;5048056;28;20224;-52
2022/12/09 12:07:57;;;;;;;199.50;155.77;;;2.10;99.90;;;;;;5045070;28;20583;-53
2022/12/09 12:10:28;;;;;;;68.43;61.03;;;2.20;99.90;;;;;;5037415;28;20704;-53
2022/12/09 12:13:05;;;;;;;353.53;152.20;;;2.30;99.90;;;;;;5051193;28;20202;-52
2022/12/09 12:15:43;;;;;;;362.53;167.57;;;2.30;99.90;;;;;;5039690;28;20232;-53
2022/12/09 12:18:20;;;;;;;100.77;91.90;;;2.40;99.90;;;;;;5051795;28;20334;-53
2022/12/09 12:21:01;;;;;;;1027.63;325.60;;;2.40;99.90;;;;;;5051884;28;20319;-52
2022/12/09 12:23:46;;;;;;;598.77;250.67;;;2.30;99.90;;;;;;5051694;28;20229;-51
2022/12/09 12:26:21;;;;;;;446.30;187.57;;;2.30;99.90;;;;;;5052169;28;20210;-52
2022/12/09 12:29:33;;;;;;;99.13;89.13;;;2.30;99.90;;;;;;5051669;28;20331;-53
2022/12/09 12:32:26;;;;;;;72.53;62.83;;;2.40;99.90;;;;;;5023073;28;20304;-52
2022/12/09 12:35:15;;;;;;;313.10;162.57;;;2.40;99.90;;;;;;5040539;28;20237;-52
2022/12/09 12:37:58;;;;;;;1999.90;994.33;;;2.40;99.90;;;;;;5051532;28;20277;-52
2022/12/09 12:40:37;;;;;;;1999.90;864.07;;;2.50;99.90;;;;;;5051572;28;20328;-52
2022/12/09 12:46:40;;;;;;;983.47;436.73;;;2.40;99.90;;;;;;5051498;28;20253;-51
2022/12/09 12:49:34;;;;;;;320.57;228.57;;;2.50;99.90;;;;;;5049870;28;20264;-53